Terminal Aerodrome Forecast
Issued by NWS Portland, OR

Home | Current Version | Previous Version | Text Only | Print | Product List | Glossary On
Versions: 1 2 3 4 5 6 7 8 9 10 11 12 13 14 15 16 17 18 19 20 21 22 23
000
FTUS46 KPQR 231624 AAA
TAFSLE
TAF AMD
KSLE 231624Z 2316/2412 19009KT P6SM -RA SCT025 OVC040
      TEMPO 2316/2319 5SM -RA BR BKN025 OVC040
     FM231900 19009KT P6SM -SHRA SCT025 BKN040
     FM240500 17004KT P6SM BKN040=

USA.gov is the U.S. government's official web portal to all federal, state and local government web resources and services.